Time;durP1;ratioP1;P1;durP2;ratioP2;P2;SDS_P1;SDS_P2;PMS_P1;PMS_P2;Temp;Humidity;BMP_temperature;BMP_pressure;BME280_temperature;BME280_humidity;BME280_pressure;Samples;Min_cycle;Max_cycle;Signal;HPM_P1;HPM_P2
2021/11/14 00:01:33;;;;;;;;;;;;;;;;;;5069784;28;1287;-53
2021/11/14 00:04:00;;;;;;;;;;;;;;;;;;5068254;28;1518;-53
2021/11/14 00:06:26;;;;;;;;;;;;;;;;;;5069428;28;991;-52
2021/11/14 00:08:51;;;;;;;;;;;;;;;;;;5069763;28;1168;-53
2021/11/14 00:11:17;;;;;;;;;;;;;;;;;;5069243;28;1374;-53
2021/11/14 00:13:43;;;;;;;;;;;;;;;;;;5068289;28;1400;-51
2021/11/14 00:16:10;;;;;;;;;;;;;;;;;;5069451;28;1184;-53
2021/11/14 00:18:35;;;;;;;;;;;;;;;;;;5069479;28;1895;-53
2021/11/14 00:21:01;;;;;;;;;;;;;;;;;;5068018;28;1360;-52
2021/11/14 00:23:26;;;;;;;;;;;;;;;;;;5069292;28;1159;-53
2021/11/14 00:25:51;;;;;;;;;;;;;;;;;;5069340;28;1168;-53
2021/11/14 00:28:17;;;;;;;;;;;;;;;;;;5068107;28;1440;-53
2021/11/14 00:30:42;;;;;;;;;;;;;;;;;;5067330;28;1582;-53
2021/11/14 00:33:09;;;;;;;;;;;;;;;;;;5067582;28;1038;-52
2021/11/14 00:35:34;;;;;;;;;;;;;;;;;;5066771;28;1583;-52
2021/11/14 00:37:59;;;;;;;;;;;;;;;;;;5066548;28;1898;-52
2021/11/14 00:40:26;;;;;;;;;;;;;;;;;;5067675;28;1353;-53
2021/11/14 00:42:52;;;;;;;;;;;;;;;;;;5066131;28;1608;-53
2021/11/14 00:45:17;;;;;;;;;;;;;;;;;;5067492;28;1351;-52
2021/11/14 00:47:42;;;;;;;;;;;;;;;;;;5066817;28;1392;-52
2021/11/14 00:50:11;;;;;;;;;;;;;;;;;;5065478;28;1458;-52
2021/11/14 00:52:36;;;;;;;;;;;;;;;;;;5067655;28;1119;-53
2021/11/14 00:55:02;;;;;;;;;;;;;;;;;;5066936;28;1092;-51
2021/11/14 00:57:27;;;;;;;;;;;;;;;;;;5066401;28;1902;-53
2021/11/14 00:59:52;;;;;;;;;;;;;;;;;;5068140;28;1749;-53
2021/11/14 01:02:17;;;;;;;;;;;;;;;;;;5063984;28;1551;-53
2021/11/14 01:04:42;;;;;;;;;;;;;;;;;;5066139;28;1455;-53
2021/11/14 01:07:09;;;;;;;;;;;;;;;;;;5065620;28;1089;-53
2021/11/14 01:09:34;;;;;;;;;;;;;;;;;;5067702;28;1909;-52
2021/11/14 01:11:59;;;;;;;;;;;;;;;;;;5067106;28;1463;-53
2021/11/14 01:14:25;;;;;;;;;;;;;;;;;;5067048;28;1436;-53
2021/11/14 01:16:50;;;;;;;;;;;;;;;;;;5066501;28;1922;-53
2021/11/14 01:19:15;;;;;;;;;;;;;;;;;;5065190;28;1392;-53
2021/11/14 01:21:45;;;;;;;;;;;;;;;;;;5067601;28;1286;-53
2021/11/14 01:24:11;;;;;;;;;;;;;;;;;;5067533;28;1608;-53
2021/11/14 01:26:36;;;;;;;;;;;;;;;;;;5068100;28;1151;-53
2021/11/14 01:29:01;;;;;;;;;;;;;;;;;;5066260;28;1576;-53
2021/11/14 01:31:26;;;;;;;;;;;;;;;;;;5067667;28;1361;-53
2021/11/14 01:33:51;;;;;;;;;;;;;;;;;;5066460;28;1416;-52
2021/11/14 01:36:16;;;;;;;;;;;;;;;;;;5065562;28;1829;-53
2021/11/14 01:38:42;;;;;;;;;;;;;;;;;;5064446;28;1957;-52
2021/11/14 01:41:08;;;;;;;;;;;;;;;;;;5067371;28;1369;-53
2021/11/14 01:43:44;;;;;;;;;;;;;;;;;;5064643;28;1580;-53
2021/11/14 01:46:09;;;;;;;;;;;;;;;;;;5066489;28;1081;-53
2021/11/14 01:48:34;;;;;;;;;;;;;;;;;;5063281;28;1646;-53
2021/11/14 01:50:59;;;;;;;;;;;;;;;;;;5063575;28;1851;-53
2021/11/14 01:53:25;;;;;;;;;;;;;;;;;;5067040;28;990;-52
2021/11/14 01:55:50;;;;;;;;;;;;;;;;;;5067271;28;1172;-52
2021/11/14 01:58:16;;;;;;;;;;;;;;;;;;5065609;28;1957;-53
2021/11/14 02:00:46;;;;;;;;;;;;;;;;;;5061336;28;1468;-52
2021/11/14 02:03:12;;;;;;;;;;;;;;;;;;5061639;28;1579;-52
2021/11/14 02:05:37;;;;;;;;;;;;;;;;;;5063712;28;2013;-52
2021/11/14 02:08:03;;;;;;;;;;;;;;;;;;5066146;28;1005;-52
2021/11/14 02:10:28;;;;;;;;;;;;;;;;;;5066420;28;1690;-53
2021/11/14 02:12:53;;;;;;;;;;;;;;;;;;5065063;28;1484;-53
2021/11/14 02:15:19;;;;;;;;;;;;;;;;;;5066784;28;1207;-53
2021/11/14 02:17:44;;;;;;;;;;;;;;;;;;5066878;28;1961;-53
2021/11/14 02:20:09;;;;;;;;;;;;;;;;;;5065328;28;1464;-53
2021/11/14 02:22:34;;;;;;;;;;;;;;;;;;5049303;28;1580;-52
2021/11/14 02:25:00;;;;;;;;;;;;;;;;;;5067443;28;1164;-52
2021/11/14 02:27:25;;;;;;;;;;;;;;;;;;5063438;28;1671;-52
2021/11/14 02:29:50;;;;;;;;;;;;;;;;;;5066190;28;1535;-52
2021/11/14 02:32:15;;;;;;;;;;;;;;;;;;5066246;28;1097;-52
2021/11/14 02:34:40;;;;;;;;;;;;;;;;;;5062167;28;1624;-52
2021/11/14 02:37:06;;;;;;;;;;;;;;;;;;5066938;28;1902;-52
2021/11/14 02:39:31;;;;;;;;;;;;;;;;;;5065493;28;1512;-52
2021/11/14 02:41:56;;;;;;;;;;;;;;;;;;5060547;28;2023;-52
2021/11/14 02:44:21;;;;;;;;;;;;;;;;;;5064898;28;1479;-53
2021/11/14 02:46:46;;;;;;;;;;;;;;;;;;5064426;28;1363;-52
2021/11/14 02:49:11;;;;;;;;;;;;;;;;;;5064938;28;1628;-52
2021/11/14 02:51:37;;;;;;;;;;;;;;;;;;5066792;28;1231;-53
2021/11/14 02:54:02;;;;;;;;;;;;;;;;;;5066697;28;1179;-52
2021/11/14 02:56:27;;;;;;;;;;;;;;;;;;5066419;28;1352;-50
2021/11/14 02:58:53;;;;;;;;;;;;;;;;;;5065476;28;1957;-53
2021/11/14 03:01:19;;;;;;;;;;;;;;;;;;5066582;28;1253;-53
2021/11/14 03:03:45;;;;;;;;;;;;;;;;;;5061321;28;1595;-53
2021/11/14 03:06:10;;;;;;;;;;;;;;;;;;5064824;28;1524;-52
2021/11/14 03:08:35;;;;;;;;;;;;;;;;;;5061988;28;1519;-53
2021/11/14 03:11:00;;;;;;;;;;;;;;;;;;5065197;28;1760;-51
2021/11/14 03:13:25;;;;;;;;;;;;;;;;;;5064940;28;1555;-51
2021/11/14 03:15:52;;;;;;;;;;;;;;;;;;5068826;28;1029;-52
2021/11/14 03:18:19;;;;;;;;;;;;;;;;;;5067291;28;1906;-53
2021/11/14 03:20:44;;;;;;;;;;;;;;;;;;5067961;28;1492;-52
2021/11/14 03:23:10;;;;;;;;;;;;;;;;;;5069655;28;1569;-53
2021/11/14 03:25:35;;;;;;;;;;;;;;;;;;5069532;28;1140;-52
2021/11/14 03:28:00;;;;;;;;;;;;;;;;;;5064700;28;1643;-53
2021/11/14 03:30:25;;;;;;;;;;;;;;;;;;5064426;28;1515;-53
2021/11/14 03:32:51;;;;;;;;;;;;;;;;;;5069996;28;1171;-54
2021/11/14 03:35:16;;;;;;;;;;;;;;;;;;5065421;28;1583;-53
2021/11/14 03:37:41;;;;;;;;;;;;;;;;;;5067721;28;1914;-53
2021/11/14 03:40:07;;;;;;;;;;;;;;;;;;5069370;28;1251;-53
2021/11/14 03:42:32;;;;;;;;;;;;;;;;;;5069720;28;1100;-53
2021/11/14 03:44:57;;;;;;;;;;;;;;;;;;5067828;28;1671;-53
2021/11/14 03:47:22;;;;;;;;;;;;;;;;;;5069801;28;1111;-53
2021/11/14 03:49:48;;;;;;;;;;;;;;;;;;5067696;28;1486;-53
2021/11/14 03:52:13;;;;;;;;;;;;;;;;;;5068371;28;1177;-53
2021/11/14 03:54:38;;;;;;;;;;;;;;;;;;5067743;28;1531;-53
2021/11/14 03:57:04;;;;;;;;;;;;;;;;;;5069134;28;1952;-50
2021/11/14 03:59:29;;;;;;;;;;;;;;;;;;5067008;28;1631;-53
2021/11/14 04:01:54;;;;;;;;;;;;;;;;;;5069444;28;1198;-52
2021/11/14 04:04:19;;;;;;;;;;;;;;;;;;5063917;28;1556;-52
2021/11/14 04:06:44;;;;;;;;;;;;;;;;;;5069433;28;1180;-53
2021/11/14 04:09:10;;;;;;;;;;;;;;;;;;5068699;28;1064;-53
2021/11/14 04:11:35;;;;;;;;;;;;;;;;;;5067841;28;1494;-53
2021/11/14 04:14:00;;;;;;;;;;;;;;;;;;5074218;22;3556;-50
2021/11/14 04:16:25;;;;;;;;;;;;;;;;;;5104815;28;1548;-50
2021/11/14 04:18:50;;;;;;;;;;;;;;;;;;5106768;28;2004;-51
2021/11/14 04:21:16;;;;;;;;;;;;;;;;;;5106931;28;1420;-49
2021/11/14 04:23:41;;;;;;;;;;;;;;;;;;5105509;28;1467;-49
2021/11/14 04:26:06;;;;;;;;;;;;;;;;;;5107150;28;1099;-49
2021/11/14 04:28:31;;;;;;;;;;;;;;;;;;5105090;28;1568;-49
2021/11/14 04:30:56;;;;;;;;;;;;;;;;;;5109837;28;1134;-50
2021/11/14 04:33:22;;;;;;;;;;;;;;;;;;5108291;28;1151;-50
2021/11/14 04:35:47;;;;;;;;;;;;;;;;;;5106250;28;1556;-51
2021/11/14 04:38:12;;;;;;;;;;;;;;;;;;5107266;28;1941;-50
2021/11/14 04:40:39;;;;;;;;;;;;;;;;;;5107245;28;1574;-51
2021/11/14 04:43:04;;;;;;;;;;;;;;;;;;5109090;28;1343;-49
2021/11/14 04:45:30;;;;;;;;;;;;;;;;;;5106310;28;1555;-51
2021/11/14 04:47:55;;;;;;;;;;;;;;;;;;5107405;28;1490;-49
2021/11/14 04:50:20;;;;;;;;;;;;;;;;;;5102928;28;1509;-50
2021/11/14 04:52:45;;;;;;;;;;;;;;;;;;5107727;28;1131;-50
2021/11/14 04:55:11;;;;;;;;;;;;;;;;;;5106682;28;1630;-50
2021/11/14 04:57:36;;;;;;;;;;;;;;;;;;5108567;28;1905;-49
2021/11/14 05:00:02;;;;;;;;;;;;;;;;;;5106635;28;1450;-49
2021/11/14 05:02:27;;;;;;;;;;;;;;;;;;5107724;28;1171;-50
2021/11/14 05:04:52;;;;;;;;;;;;;;;;;;5102725;28;1650;-50
2021/11/14 05:07:17;;;;;;;;;;;;;;;;;;5108055;28;1123;-50
2021/11/14 05:09:42;;;;;;;;;;;;;;;;;;5106524;28;1626;-50
2021/11/14 05:12:08;;;;;;;;;;;;;;;;;;5108090;28;1343;-50
2021/11/14 05:14:33;;;;;;;;;;;;;;;;;;5107060;28;1410;-51
2021/11/14 05:16:58;;;;;;;;;;;;;;;;;;5107697;28;1967;-50
2021/11/14 05:19:23;;;;;;;;;;;;;;;;;;5105835;28;1414;-50
2021/11/14 05:21:48;;;;;;;;;;;;;;;;;;5104334;28;1640;-50
2021/11/14 05:24:13;;;;;;;;;;;;;;;;;;5107907;28;1390;-50
2021/11/14 05:26:38;;;;;;;;;;;;;;;;;;5107016;28;1300;-50
2021/11/14 05:29:04;;;;;;;;;;;;;;;;;;5106996;28;1530;-49
2021/11/14 05:31:29;;;;;;;;;;;;;;;;;;5107512;28;1202;-50
2021/11/14 05:33:54;;;;;;;;;;;;;;;;;;5106462;28;1572;-51
2021/11/14 05:36:19;;;;;;;;;;;;;;;;;;5107093;28;997;-50
2021/11/14 05:38:44;;;;;;;;;;;;;;;;;;5104810;28;1965;-49
2021/11/14 05:41:10;;;;;;;;;;;;;;;;;;5108370;28;1361;-50
2021/11/14 05:43:35;;;;;;;;;;;;;;;;;;5107393;28;1087;-50
2021/11/14 05:46:00;;;;;;;;;;;;;;;;;;5103536;28;1571;-50
2021/11/14 05:48:27;;;;;;;;;;;;;;;;;;5107360;28;1293;-49
2021/11/14 05:50:52;;;;;;;;;;;;;;;;;;5104165;28;1496;-49
2021/11/14 05:53:17;;;;;;;;;;;;;;;;;;5108099;28;1202;-49
2021/11/14 05:55:42;;;;;;;;;;;;;;;;;;5106395;28;1600;-51
2021/11/14 05:58:11;;;;;;;;;;;;;;;;;;5107865;28;1901;-49
2021/11/14 06:03:32;;;;;;;;;;;;;;;;;;5104792;28;1493;-50
2021/11/14 06:05:57;;;;;;;;;;;;;;;;;;5100296;28;1543;-49
2021/11/14 06:08:22;;;;;;;;;;;;;;;;;;5107796;28;1186;-49
2021/11/14 06:10:48;;;;;;;;;;;;;;;;;;5106920;28;1491;-50
2021/11/14 06:13:13;;;;;;;;;;;;;;;;;;5104973;28;1479;-52
2021/11/14 06:15:38;;;;;;;;;;;;;;;;;;5107485;28;1331;-50
2021/11/14 06:18:03;;;;;;;;;;;;;;;;;;5103894;28;1957;-50
2021/11/14 06:20:29;;;;;;;;;;;;;;;;;;5106345;28;1418;-49
2021/11/14 06:22:54;;;;;;;;;;;;;;;;;;5106388;28;1643;-51
2021/11/14 06:25:20;;;;;;;;;;;;;;;;;;5106177;28;1359;-49
2021/11/14 06:27:45;;;;;;;;;;;;;;;;;;5107066;28;1094;-50
2021/11/14 06:30:11;;;;;;;;;;;;;;;;;;5105600;28;1706;-51
2021/11/14 06:32:36;;;;;;;;;;;;;;;;;;5107320;28;1197;-50
2021/11/14 06:35:01;;;;;;;;;;;;;;;;;;5104738;28;1578;-50
2021/11/14 06:37:27;;;;;;;;;;;;;;;;;;5106027;28;1905;-51
2021/11/14 06:39:52;;;;;;;;;;;;;;;;;;5106305;28;1476;-50
2021/11/14 06:42:17;;;;;;;;;;;;;;;;;;5107710;28;1162;-50
2021/11/14 06:44:44;;;;;;;;;;;;;;;;;;5104516;28;1448;-50
2021/11/14 06:47:09;;;;;;;;;;;;;;;;;;5107484;28;1154;-51
2021/11/14 06:49:35;;;;;;;;;;;;;;;;;;5105722;28;1591;-50
2021/11/14 06:52:00;;;;;;;;;;;;;;;;;;5111433;28;1293;-50
2021/11/14 06:54:25;;;;;;;;;;;;;;;;;;5110756;28;1369;-50
2021/11/14 06:56:50;;;;;;;;;;;;;;;;;;5109818;28;1897;-49
2021/11/14 06:59:15;;;;;;;;;;;;;;;;;;5108484;28;1517;-49
2021/11/14 07:01:41;;;;;;;;;;;;;;;;;;5110783;28;1118;-50
2021/11/14 07:04:06;;;;;;;;;;;;;;;;;;5107918;28;1367;-51
2021/11/14 07:06:31;;;;;;;;;;;;;;;;;;5108689;28;1539;-50
2021/11/14 07:08:57;;;;;;;;;;;;;;;;;;5111025;28;1127;-51
2021/11/14 07:11:22;;;;;;;;;;;;;;;;;;5109895;28;1091;-50
2021/11/14 07:13:47;;;;;;;;;;;;;;;;;;5107385;28;1754;-50
2021/11/14 07:16:12;;;;;;;;;;;;;;;;;;5109203;28;1593;-51
2021/11/14 07:18:38;;;;;;;;;;;;;;;;;;5109036;28;1922;-50
2021/11/14 07:21:03;;;;;;;;;;;;;;;;;;5109830;28;1450;-49
2021/11/14 07:23:28;;;;;;;;;;;;;;;;;;5110322;28;1225;-50
2021/11/14 07:25:53;;;;;;;;;;;;;;;;;;5109125;28;1443;-50
2021/11/14 07:28:18;;;;;;;;;;;;;;;;;;5109130;28;1478;-49
2021/11/14 07:30:44;;;;;;;;;;;;;;;;;;5109135;28;1601;-49
2021/11/14 07:33:10;;;;;;;;;;;;;;;;;;5109063;28;1119;-50
2021/11/14 07:35:36;;;;;;;;;;;;;;;;;;5107703;28;2062;-50
2021/11/14 07:38:02;;;;;;;;;;;;;;;;;;5110711;28;1925;-50
2021/11/14 07:40:27;;;;;;;;;;;;;;;;;;5109196;28;1515;-50
2021/11/14 07:42:53;;;;;;;;;;;;;;;;;;5109647;28;1414;-50
2021/11/14 07:45:20;;;;;;;;;;;;;;;;;;5106969;28;1515;-50
2021/11/14 07:47:46;;;;;;;;;;;;;;;;;;5108696;28;969;-49
2021/11/14 07:50:11;;;;;;;;;;;;;;;;;;5108055;28;1413;-51
2021/11/14 07:52:37;;;;;;;;;;;;;;;;;;5106309;28;1529;-50
2021/11/14 07:55:02;;;;;;;;;;;;;;;;;;5110172;28;1279;-50
2021/11/14 07:57:27;;;;;;;;;;;;;;;;;;5107772;28;1914;-50
2021/11/14 07:59:52;;;;;;;;;;;;;;;;;;5107841;28;1698;-50
2021/11/14 08:02:18;;;;;;;;;;;;;;;;;;5109117;28;1087;-50
2021/11/14 08:04:43;;;;;;;;;;;;;;;;;;5107131;28;1568;-47
2021/11/14 08:07:08;;;;;;;;;;;;;;;;;;5108533;28;1282;-50
2021/11/14 08:09:33;;;;;;;;;;;;;;;;;;5109357;28;1020;-50
2021/11/14 08:11:59;;;;;;;;;;;;;;;;;;5108578;28;1643;-50
2021/11/14 08:14:24;;;;;;;;;;;;;;;;;;5108189;28;1386;-50
2021/11/14 08:16:49;;;;;;;;;;;;;;;;;;5108367;28;1975;-49
2021/11/14 08:19:14;;;;;;;;;;;;;;;;;;5107323;28;1355;-50
2021/11/14 08:21:39;;;;;;;;;;;;;;;;;;5108480;28;1206;-49
2021/11/14 08:24:05;;;;;;;;;;;;;;;;;;5109208;28;1800;-50
2021/11/14 08:26:30;;;;;;;;;;;;;;;;;;5108850;28;1194;-50
2021/11/14 08:28:58;;;;;;;;;;;;;;;;;;5106128;28;1491;-50
2021/11/14 08:31:23;;;;;;;;;;;;;;;;;;5107936;28;1095;-49
2021/11/14 08:33:48;;;;;;;;;;;;;;;;;;5106427;28;1507;-51
2021/11/14 08:36:14;;;;;;;;;;;;;;;;;;5106932;28;1672;-50
2021/11/14 08:38:39;;;;;;;;;;;;;;;;;;5103633;28;1890;-50
2021/11/14 08:41:04;;;;;;;;;;;;;;;;;;5108760;28;1039;-50
2021/11/14 08:43:29;;;;;;;;;;;;;;;;;;5107359;28;1354;-49
2021/11/14 08:45:55;;;;;;;;;;;;;;;;;;5108919;28;1276;-49
2021/11/14 08:48:20;;;;;;;;;;;;;;;;;;5106119;28;1803;-51
2021/11/14 08:50:46;;;;;;;;;;;;;;;;;;5106735;28;1433;-49
2021/11/14 08:53:11;;;;;;;;;;;;;;;;;;5103179;28;1454;-50
2021/11/14 08:55:37;;;;;;;;;;;;;;;;;;5107151;28;1581;-49
2021/11/14 08:58:02;;;;;;;;;;;;;;;;;;5108705;28;1897;-50
2021/11/14 09:00:29;;;;;;;;;;;;;;;;;;5105563;28;1595;-49
2021/11/14 09:02:54;;;;;;;;;;;;;;;;;;5107373;28;1127;-49
2021/11/14 09:05:21;;;;;;;;;;;;;;;;;;5105167;28;1446;-49
2021/11/14 09:07:47;;;;;;;;;;;;;;;;;;5108698;28;1087;-50
2021/11/14 09:10:12;;;;;;;;;;;;;;;;;;5106591;28;1670;-50
2021/11/14 09:12:37;;;;;;;;;;;;;;;;;;5107344;28;1571;-49
2021/11/14 09:15:03;;;;;;;;;;;;;;;;;;5107081;28;1490;-51
2021/11/14 09:17:28;;;;;;;;;;;;;;;;;;5105175;27;1941;-52
2021/11/14 09:19:53;;;;;;;;;;;;;;;;;;5106318;28;1480;-54
2021/11/14 09:22:18;;;;;;;;;;;;;;;;;;5105618;28;1032;-52
2021/11/14 09:24:44;;;;;;;;;;;;;;;;;;5102561;28;1643;-51
2021/11/14 09:27:09;;;;;;;;;;;;;;;;;;5107320;28;1166;-52
2021/11/14 09:29:34;;;;;;;;;;;;;;;;;;5105596;28;1445;-52
2021/11/14 09:31:59;;;;;;;;;;;;;;;;;;5105260;28;1402;-52
2021/11/14 09:34:24;;;;;;;;;;;;;;;;;;5101056;28;1480;-52
2021/11/14 09:36:50;;;;;;;;;;;;;;;;;;5103980;28;1965;-52
2021/11/14 09:39:15;;;;;;;;;;;;;;;;;;5105702;28;1383;-53
2021/11/14 09:41:42;;;;;;;;;;;;;;;;;;5105353;28;1497;-54
2021/11/14 09:44:10;;;;;;;;;;;;;;;;;;5105314;28;1275;-53
2021/11/14 09:46:36;;;;;;;;;;;;;;;;;;5104232;28;1378;-52
2021/11/14 09:49:04;;;;;;;;;;;;;;;;;;5104526;28;2004;-52
2021/11/14 09:51:30;;;;;;;;;;;;;;;;;;5106580;28;1163;-52
2021/11/14 09:53:55;;;;;;;;;;;;;;;;;;5106173;28;1536;-52
2021/11/14 09:56:20;;;;;;;;;;;;;;;;;;5107686;28;1107;-52
2021/11/14 09:58:45;;;;;;;;;;;;;;;;;;5104150;28;1913;-50
2021/11/14 10:01:11;;;;;;;;;;;;;;;;;;5106672;28;1149;-52
2021/11/14 10:03:36;;;;;;;;;;;;;;;;;;5101965;28;1635;-52
2021/11/14 10:06:01;;;;;;;;;;;;;;;;;;5105516;28;1403;-53
2021/11/14 10:08:36;;;;;;;;;;;;;;;;;;5104966;28;1486;-53
2021/11/14 10:11:01;;;;;;;;;;;;;;;;;;5106244;28;1629;-51
2021/11/14 10:13:27;;;;;;;;;;;;;;;;;;5107183;28;1555;-52
2021/11/14 10:16:03;;;;;;;;;;;;;;;;;;5106359;28;1282;-51
2021/11/14 10:18:28;;;;;;;;;;;;;;;;;;5103011;28;1905;-52
2021/11/14 10:20:56;;;;;;;;;;;;;;;;;;5105595;28;1478;-53
2021/11/14 10:23:22;;;;;;;;;;;;;;;;;;5104800;28;1457;-52
2021/11/14 10:25:47;;;;;;;;;;;;;;;;;;5110355;28;1287;-52
2021/11/14 10:28:12;;;;;;;;;;;;;;;;;;5109224;28;1454;-53
2021/11/14 10:30:39;;;;;;;;;;;;;;;;;;5112199;28;1103;-52
2021/11/14 10:33:05;;;;;;;;;;;;;;;;;;5107097;28;1524;-52
2021/11/14 10:35:30;;;;;;;;;;;;;;;;;;5107458;28;1454;-51
2021/11/14 10:37:57;;;;;;;;;;;;;;;;;;5106533;22;3534;-55
2021/11/14 10:40:23;;;;;;;;;;;;;;;;;;5070116;28;1589;-56
2021/11/14 10:42:49;;;;;;;;;;;;;;;;;;5088941;28;1500;-55
2021/11/14 10:45:15;;;;;;;;;;;;;;;;;;5090389;28;1584;-54
2021/11/14 10:47:40;;;;;;;;;;;;;;;;;;5075208;28;1377;-55
2021/11/14 10:50:06;;;;;;;;;;;;;;;;;;5065217;28;1544;-55
2021/11/14 10:52:32;;;;;;;;;;;;;;;;;;5069233;28;1144;-55
2021/11/14 10:55:04;;;;;;;;;;;;;;;;;;5070685;28;1175;-55
2021/11/14 10:57:30;;;;;;;;;;;;;;;;;;5070147;28;1902;-55
2021/11/14 10:59:55;;;;;;;;;;;;;;;;;;5064524;28;1537;-55
2021/11/14 11:02:21;;;;;;;;;;;;;;;;;;5067779;28;1102;-55
2021/11/14 11:04:47;;;;;;;;;;;;;;;;;;5062834;28;1682;-55
2021/11/14 11:07:12;;;;;;;;;;;;;;;;;;5067096;28;1286;-55
2021/11/14 11:09:39;;;;;;;;;;;;;;;;;;5067970;28;1551;-55
2021/11/14 11:12:14;;;;;;;;;;;;;;;;;;5065693;28;1077;-55
2021/11/14 11:14:49;;;;;;;;;;;;;;;;;;5065132;28;2130;-55
2021/11/14 11:17:14;;;;;;;;;;;;;;;;;;5068883;28;1997;-55
2021/11/14 11:19:39;;;;;;;;;;;;;;;;;;5051716;28;1500;-55
2021/11/14 11:22:05;;;;;;;;;;;;;;;;;;5069942;28;1658;-55
2021/11/14 11:24:30;;;;;;;;;;;;;;;;;;5070843;28;1147;-56
2021/11/14 11:26:55;;;;;;;;;;;;;;;;;;5066618;28;1934;-56
2021/11/14 11:29:20;;;;;;;;;;;;;;;;;;5066264;28;1701;-55
2021/11/14 11:31:46;;;;;;;;;;;;;;;;;;5069646;28;1148;-55
2021/11/14 11:34:11;;;;;;;;;;;;;;;;;;5065435;28;1615;-55
2021/11/14 11:36:36;;;;;;;;;;;;;;;;;;5069654;28;1285;-55
2021/11/14 11:39:01;;;;;;;;;;;;;;;;;;5069379;28;1951;-55
2021/11/14 11:41:28;;;;;;;;;;;;;;;;;;5070165;28;1160;-55
2021/11/14 11:43:54;;;;;;;;;;;;;;;;;;5049094;28;1554;-56
2021/11/14 11:46:20;;;;;;;;;;;;;;;;;;5066685;28;1612;-55
2021/11/14 11:48:47;;;;;;;;;;;;;;;;;;5048552;28;1544;-55
2021/11/14 11:51:18;;;;;;;;;;;;;;;;;;5065401;28;1375;-56
2021/11/14 11:53:43;;;;;;;;;;;;;;;;;;5067390;28;1606;-54
2021/11/14 11:56:15;;;;;;;;;;;;;;;;;;5070033;28;1302;-56
2021/11/14 11:58:47;;;;;;;;;;;;;;;;;;5067055;28;1905;-54
2021/11/14 12:01:20;;;;;;;;;;;;;;;;;;5069570;28;1085;-55
2021/11/14 12:03:45;;;;;;;;;;;;;;;;;;5065882;28;1412;-56
2021/11/14 12:06:21;;;;;;;;;;;;;;;;;;5065238;28;1740;-55
2021/11/14 12:08:47;;;;;;;;;;;;;;;;;;5066524;28;1102;-55
2021/11/14 12:11:23;;;;;;;;;;;;;;;;;;5066181;28;1560;-54
2021/11/14 12:13:49;;;;;;;;;;;;;;;;;;5064973;28;1932;-55
2021/11/14 12:16:23;;;;;;;;;;;;;;;;;;5064746;28;1289;-55
2021/11/14 12:18:48;;;;;;;;;;;;;;;;;;5049609;28;1914;-55
2021/11/14 12:21:14;;;;;;;;;;;;;;;;;;5068379;28;1474;-55
2021/11/14 12:23:40;;;;;;;;;;;;;;;;;;5067850;28;1519;-55
2021/11/14 12:26:07;;;;;;;;;;;;;;;;;;5050753;28;1400;-55
2021/11/14 12:28:32;;;;;;;;;;;;;;;;;;5065687;28;1515;-55
2021/11/14 12:33:27;;;;;;;;;;;;;;;;;;5068232;28;1061;-56
2021/11/14 12:35:57;;;;;;;;;;;;;;;;;;5065700;28;1560;-55
2021/11/14 12:38:24;;;;;;;;;;;;;;;;;;5068841;28;1992;-55
2021/11/14 12:40:55;;;;;;;;;;;;;;;;;;5068683;28;1178;-55
2021/11/14 12:43:21;;;;;;;;;;;;;;;;;;5063396;28;1846;-56
2021/11/14 12:45:47;;;;;;;;;;;;;;;;;;5066939;28;1148;-55
2021/11/14 12:48:12;;;;;;;;;;;;;;;;;;5062247;28;1746;-55
2021/11/14 12:50:37;;;;;;;;;;;;;;;;;;5067089;28;1411;-55
2021/11/14 12:53:05;;;;;;;;;;;;;;;;;;5067645;28;1590;-55
2021/11/14 12:55:30;;;;;;;;;;;;;;;;;;5068485;28;1155;-56
2021/11/14 12:57:56;;;;;;;;;;;;;;;;;;5065429;28;1910;-55
2021/11/14 13:00:35;;;;;;;;;;;;;;;;;;5062707;28;1383;-55
2021/11/14 13:03:00;;;;;;;;;;;;;;;;;;5065504;28;1592;-55
2021/11/14 13:05:25;;;;;;;;;;;;;;;;;;5043273;28;1399;-51
2021/11/14 13:07:56;;;;;;;;;;;;;;;;;;5023276;28;1285;-55
2021/11/14 13:10:22;;;;;;;;;;;;;;;;;;5067011;28;1776;-55
2021/11/14 13:12:47;;;;;;;;;;;;;;;;;;5064990;28;1128;-55
2021/11/14 13:15:12;;;;;;;;;;;;;;;;;;5066359;28;1419;-54
2021/11/14 13:17:42;;;;;;;;;;;;;;;;;;5066040;28;1977;-55
2021/11/14 13:20:09;;;;;;;;;;;;;;;;;;5066356;28;1320;-55
2021/11/14 13:22:34;;;;;;;;;;;;;;;;;;5048469;28;1520;-56
2021/11/14 13:25:04;;;;;;;;;;;;;;;;;;5046521;28;1093;-52
2021/11/14 13:27:29;;;;;;;;;;;;;;;;;;5063296;28;1501;-55
2021/11/14 13:29:54;;;;;;;;;;;;;;;;;;5062184;28;1568;-55
2021/11/14 13:32:21;;;;;;;;;;;;;;;;;;5061578;28;1082;-56
2021/11/14 13:34:47;;;;;;;;;;;;;;;;;;5066075;28;1556;-54
2021/11/14 13:37:16;;;;;;;;;;;;;;;;;;5067475;28;1909;-55
2021/11/14 13:39:44;;;;;;;;;;;;;;;;;;5066766;28;1504;-56
2021/11/14 13:42:13;;;;;;;;;;;;;;;;;;5066422;28;1074;-55
2021/11/14 13:44:45;;;;;;;;;;;;;;;;;;5065187;28;1488;-55
2021/11/14 13:47:11;;;;;;;;;;;;;;;;;;5063224;28;1517;-55
2021/11/14 13:49:36;;;;;;;;;;;;;;;;;;5063050;28;1655;-55
2021/11/14 13:52:03;;;;;;;;;;;;;;;;;;5067532;28;1128;-55
2021/11/14 13:54:28;;;;;;;;;;;;;;;;;;5064510;28;1540;-55
2021/11/14 13:56:53;;;;;;;;;;;;;;;;;;5063871;28;1443;-53
2021/11/14 13:59:18;;;;;;;;;;;;;;;;;;5063763;28;1906;-55
2021/11/14 14:01:57;;;;;;;;;;;;;;;;;;5066651;28;1172;-55
2021/11/14 14:04:25;;;;;;;;;;;;;;;;;;5062080;28;1583;-55
2021/11/14 14:07:02;;;;;;;;;;;;;;;;;;5064536;28;1639;-55
2021/11/14 14:09:27;;;;;;;;;;;;;;;;;;5065855;28;1208;-55
2021/11/14 14:11:52;;;;;;;;;;;;;;;;;;5066005;28;1155;-55
2021/11/14 14:14:18;;;;;;;;;;;;;;;;;;5061332;28;1535;-55
2021/11/14 14:16:45;;;;;;;;;;;;;;;;;;5064576;28;1607;-55
2021/11/14 14:19:11;;;;;;;;;;;;;;;;;;5064307;28;1910;-55
2021/11/14 14:21:36;;;;;;;;;;;;;;;;;;5064195;28;1575;-55
2021/11/14 14:24:02;;;;;;;;;;;;;;;;;;5064444;28;1524;-55
2021/11/14 14:26:27;;;;;;;;;;;;;;;;;;5066015;28;1221;-55
2021/11/14 14:28:53;;;;;;;;;;;;;;;;;;5063953;28;1405;-55
2021/11/14 14:31:19;;;;;;;;;;;;;;;;;;5064467;28;1066;-55
2021/11/14 14:33:50;;;;;;;;;;;;;;;;;;5064044;28;1384;-55
2021/11/14 14:36:15;;;;;;;;;;;;;;;;;;5065739;28;1424;-56
2021/11/14 14:38:41;;;;;;;;;;;;;;;;;;5065966;28;1963;-55
2021/11/14 14:41:07;;;;;;;;;;;;;;;;;;5062940;28;1448;-55
2021/11/14 14:43:33;;;;;;;;;;;;;;;;;;5064100;28;1423;-54
2021/11/14 14:45:58;;;;;;;;;;;;;;;;;;5065382;28;1555;-54
2021/11/14 14:48:28;;;;;;;;;;;;;;;;;;5063277;28;1392;-55
2021/11/14 14:51:00;;;;;;;;;;;;;;;;;;5063408;28;1523;-56
2021/11/14 14:53:26;;;;;;;;;;;;;;;;;;5066095;28;1196;-55
2021/11/14 14:55:51;;;;;;;;;;;;;;;;;;5063878;28;1539;-55
2021/11/14 14:58:16;;;;;;;;;;;;;;;;;;5064669;28;1973;-55
2021/11/14 15:00:42;;;;;;;;;;;;;;;;;;5065654;28;1116;-55
2021/11/14 15:03:07;;;;;;;;;;;;;;;;;;5066585;28;1356;-54
2021/11/14 15:05:42;;;;;;;;;;;;;;;;;;5063230;28;1511;-55
2021/11/14 15:08:08;;;;;;;;;;;;;;;;;;5065588;28;1268;-55
2021/11/14 15:10:33;;;;;;;;;;;;;;;;;;5064639;28;1440;-55
2021/11/14 15:13:00;;;;;;;;;;;;;;;;;;5064238;28;1547;-56
2021/11/14 15:15:25;;;;;;;;;;;;;;;;;;5068306;28;1137;-56
2021/11/14 15:17:54;;;;;;;;;;;;;;;;;;5069206;28;1891;-55
2021/11/14 15:20:21;;;;;;;;;;;;;;;;;;5069832;28;1601;-60
2021/11/14 15:22:47;;;;;;;;;;;;;;;;;;5069869;28;1653;-58
2021/11/14 15:25:16;;;;;;;;;;;;;;;;;;5070401;28;1176;-58
2021/11/14 15:27:46;;;;;;;;;;;;;;;;;;5066986;28;1549;-57
2021/11/14 15:30:12;;;;;;;;;;;;;;;;;;5069020;28;1038;-58
2021/11/14 15:32:37;;;;;;;;;;;;;;;;;;5067398;28;1627;-58
2021/11/14 15:35:04;;;;;;;;;;;;;;;;;;5065497;28;1504;-57
2021/11/14 15:37:29;;;;;;;;;;;;;;;;;;5066807;28;2257;-58
2021/11/14 15:39:54;;;;;;;;;;;;;;;;;;5066781;28;1621;-57
2021/11/14 15:42:21;;;;;;;;;;;;;;;;;;5065444;28;1474;-57
2021/11/14 15:44:46;;;;;;;;;;;;;;;;;;5068849;28;1611;-57
2021/11/14 15:47:12;;;;;;;;;;;;;;;;;;5068795;28;1451;-59
2021/11/14 15:49:37;;;;;;;;;;;;;;;;;;5068253;28;1595;-57
2021/11/14 15:52:02;;;;;;;;;;;;;;;;;;5069908;28;981;-59
2021/11/14 15:54:27;;;;;;;;;;;;;;;;;;5069148;28;1176;-56
2021/11/14 15:56:53;;;;;;;;;;;;;;;;;;5051338;28;1758;-59
2021/11/14 15:59:18;;;;;;;;;;;;;;;;;;5068641;28;1906;-57
2021/11/14 16:01:43;;;;;;;;;;;;;;;;;;5069773;28;1147;-57
2021/11/14 16:04:08;;;;;;;;;;;;;;;;;;5065554;28;1563;-58
2021/11/14 16:06:33;;;;;;;;;;;;;;;;;;5063887;28;1291;-58
2021/11/14 16:08:59;;;;;;;;;;;;;;;;;;5066980;28;1448;-58
2021/11/14 16:11:24;;;;;;;;;;;;;;;;;;5069818;28;1100;-58
2021/11/14 16:13:49;;;;;;;;;;;;;;;;;;5067235;28;1480;-59
2021/11/14 16:16:14;;;;;;;;;;;;;;;;;;5062475;28;1399;-57
2021/11/14 16:18:40;;;;;;;;;;;;;;;;;;5068193;28;1963;-59
2021/11/14 16:21:05;;;;;;;;;;;;;;;;;;5062837;28;1531;-58
2021/11/14 16:23:33;;;;;;;;;;;;;;;;;;5067492;28;1148;-60
2021/11/14 16:25:58;;;;;;;;;;;;;;;;;;5068644;28;1666;-58
2021/11/14 16:28:23;;;;;;;;;;;;;;;;;;5068286;28;1403;-58
2021/11/14 16:30:48;;;;;;;;;;;;;;;;;;5068236;28;1607;-58
2021/11/14 16:33:14;;;;;;;;;;;;;;;;;;5065378;28;1279;-58
2021/11/14 16:35:39;;;;;;;;;;;;;;;;;;5066020;28;1454;-58
2021/11/14 16:40:34;;;;;;;;;;;;;;;;;;5043376;28;1391;-54
2021/11/14 16:43:00;;;;;;;;;;;;;;;;;;5044860;28;1464;-56
2021/11/14 16:45:25;;;;;;;;;;;;;;;;;;5026697;28;1746;-53
2021/11/14 16:47:51;;;;;;;;;;;;;;;;;;5045437;28;1516;-53
2021/11/14 16:50:16;;;;;;;;;;;;;;;;;;5045868;28;1397;-55
2021/11/14 16:52:41;;;;;;;;;;;;;;;;;;5045401;28;1537;-52
2021/11/14 16:55:06;;;;;;;;;;;;;;;;;;5041054;28;1619;-53
2021/11/14 16:57:32;;;;;;;;;;;;;;;;;;5045858;28;1914;-54
2021/11/14 16:59:57;;;;;;;;;;;;;;;;;;5044372;28;1692;-54
2021/11/14 17:02:22;;;;;;;;;;;;;;;;;;5043137;28;1432;-55